createdAt,value
2019-05-03T00:02:24.461Z,1.20
2019-05-03T00:04:56.076Z,2.23
2019-05-03T00:07:23.151Z,1.70
2019-05-03T00:09:52.045Z,1.67
2019-05-03T00:12:19.396Z,1.43
2019-05-03T00:14:48.878Z,1.43
2019-05-03T00:17:15.945Z,1.10
2019-05-03T00:19:43.009Z,1.43
2019-05-03T00:22:12.223Z,1.67
2019-05-03T00:24:39.036Z,1.70
2019-05-03T00:27:06.191Z,1.60
2019-05-03T00:29:33.264Z,1.70
2019-05-03T00:32:01.898Z,1.40
2019-05-03T00:34:34.592Z,1.30
2019-05-03T00:37:03.797Z,1.70
2019-05-03T00:39:37.718Z,1.50
2019-05-03T00:42:04.817Z,1.70
2019-05-03T00:44:31.910Z,2.00
2019-05-03T00:46:58.990Z,1.77
2019-05-03T00:49:26.046Z,1.60
2019-05-03T00:51:53.119Z,1.57
2019-05-03T00:54:22.161Z,1.30
2019-05-03T00:56:49.159Z,1.73
2019-05-03T00:59:16.247Z,1.70
2019-05-03T01:01:43.321Z,1.80
2019-05-03T01:04:11.854Z,1.17
2019-05-03T01:06:39.098Z,1.80
2019-05-03T01:09:11.747Z,1.80
2019-05-03T01:11:41.830Z,1.20
2019-05-03T01:14:09.097Z,1.70
2019-05-03T01:16:36.161Z,1.63
2019-05-03T01:19:03.238Z,1.80
2019-05-03T01:21:31.709Z,1.50
2019-05-03T01:23:58.772Z,1.90
2019-05-03T01:26:25.878Z,1.80
2019-05-03T01:28:52.961Z,1.40
2019-05-03T01:31:20.021Z,1.70
2019-05-03T01:33:47.095Z,1.60
2019-05-03T01:36:14.267Z,1.70
2019-05-03T01:38:42.382Z,1.50
2019-05-03T01:41:09.501Z,1.90
2019-05-03T01:43:36.574Z,1.63
2019-05-03T01:46:03.644Z,1.40
2019-05-03T01:48:52.109Z,1.77
2019-05-03T01:51:38.819Z,1.80
2019-05-03T01:54:05.920Z,1.20
2019-05-03T01:56:32.978Z,1.60
2019-05-03T01:59:01.766Z,1.80
2019-05-03T02:01:35.633Z,1.80
2019-05-03T02:04:09.746Z,1.80
2019-05-03T02:06:36.811Z,1.43
2019-05-03T02:09:05.926Z,1.60
2019-05-03T02:11:33.055Z,1.90
2019-05-03T02:14:01.722Z,1.40
2019-05-03T02:16:29.000Z,1.30
2019-05-03T02:18:56.070Z,1.73
2019-05-03T02:21:23.130Z,1.67
2019-05-03T02:23:51.924Z,1.70
2019-05-03T02:26:19.166Z,1.90
2019-05-03T02:28:46.238Z,2.00
2019-05-03T02:31:13.826Z,1.67
2019-05-03T02:33:43.436Z,1.90
2019-05-03T02:36:10.198Z,1.70
2019-05-03T02:38:37.589Z,1.70
2019-05-03T02:41:04.659Z,2.10
2019-05-03T02:43:36.672Z,1.73
2019-05-03T02:46:11.683Z,1.90
2019-05-03T02:49:01.123Z,2.10
2019-05-03T02:51:28.197Z,1.10
2019-05-03T02:53:57.053Z,1.80
2019-05-03T02:56:26.105Z,1.83
2019-05-03T02:58:55.613Z,1.80
2019-05-03T03:01:26.069Z,1.60
2019-05-03T03:03:52.459Z,1.50
2019-05-03T03:06:21.622Z,1.97
2019-05-03T03:08:49.680Z,2.00
2019-05-03T03:11:17.565Z,2.17
2019-05-03T03:13:45.947Z,2.10
2019-05-03T03:16:15.621Z,1.33
2019-05-03T03:18:42.076Z,1.43
2019-05-03T03:21:16.066Z,1.60
2019-05-03T03:23:56.196Z,1.60
2019-05-03T03:26:37.674Z,1.60
2019-05-03T03:29:01.269Z,1.60
2019-05-03T03:32:00.147Z,1.70
2019-05-03T03:34:32.214Z,1.70
2019-05-03T03:37:05.215Z,1.57
2019-05-03T03:39:29.013Z,1.27
2019-05-03T03:41:57.380Z,1.87
2019-05-03T03:44:25.846Z,1.67
2019-05-03T03:46:56.197Z,1.63
2019-05-03T03:49:26.287Z,1.30
2019-05-03T03:51:56.153Z,1.83
2019-05-03T03:54:22.640Z,1.60
2019-05-03T03:57:01.571Z,1.70
2019-05-03T03:59:26.517Z,1.73
2019-05-03T04:01:55.124Z,2.03
2019-05-03T04:04:25.738Z,2.23
2019-05-03T04:06:52.264Z,1.90
2019-05-03T04:09:19.962Z,1.60
2019-05-03T04:11:47.450Z,2.17
2019-05-03T04:14:18.768Z,1.83
2019-05-03T04:17:09.187Z,1.80
2019-05-03T04:19:37.226Z,1.70
2019-05-03T04:22:05.929Z,1.73
2019-05-03T04:24:35.125Z,1.43
2019-05-03T04:27:17.739Z,2.20
2019-05-03T04:29:37.891Z,1.67
2019-05-03T04:32:07.323Z,2.03
2019-05-03T04:34:36.252Z,1.77
2019-05-03T04:37:05.357Z,1.90
2019-05-03T04:39:32.727Z,2.00
2019-05-03T04:41:59.907Z,1.70
2019-05-03T04:44:26.985Z,1.90
2019-05-03T04:46:56.120Z,1.50
2019-05-03T04:49:26.219Z,1.50
2019-05-03T04:51:56.025Z,2.17
2019-05-03T04:54:45.069Z,1.53
2019-05-03T04:57:11.844Z,1.73
2019-05-03T04:59:38.969Z,2.07
2019-05-03T05:02:06.419Z,1.13
2019-05-03T05:04:35.773Z,1.83
2019-05-03T05:07:02.542Z,1.43
2019-05-03T05:09:29.736Z,1.93
2019-05-03T05:11:56.966Z,2.00
2019-05-03T05:14:25.918Z,1.50
2019-05-03T05:16:55.709Z,1.83
2019-05-03T05:19:30.209Z,1.37
2019-05-03T05:22:03.239Z,1.80
2019-05-03T05:24:30.515Z,2.27
2019-05-03T05:27:17.361Z,2.03
2019-05-03T05:29:45.081Z,1.77
2019-05-03T05:32:14.364Z,1.43
2019-05-03T05:34:41.223Z,1.90
2019-05-03T05:37:08.286Z,5.40
2019-05-03T05:39:35.850Z,1.80
2019-05-03T05:42:04.520Z,1.60
2019-05-03T05:44:31.834Z,1.70
2019-05-03T05:47:08.611Z,1.83
2019-05-03T05:49:57.734Z,1.90
2019-05-03T05:52:24.823Z,1.80
2019-05-03T05:55:25.264Z,1.70
2019-05-03T05:58:20.854Z,1.30
2019-05-03T06:00:55.202Z,1.40
2019-05-03T06:03:22.354Z,1.50
2019-05-03T06:05:49.727Z,1.40
2019-05-03T06:08:27.589Z,1.60
2019-05-03T06:11:26.313Z,1.17
2019-05-03T06:14:05.009Z,1.50
2019-05-03T06:16:47.971Z,1.40
2019-05-03T06:19:25.398Z,1.67
2019-05-03T06:22:10.780Z,1.10
2019-05-03T06:24:42.864Z,1.33
2019-05-03T06:27:19.469Z,1.70
2019-05-03T06:29:48.346Z,1.30
2019-05-03T06:32:31.281Z,1.00
2019-05-03T06:34:58.350Z,1.30
2019-05-03T06:37:28.306Z,1.57
2019-05-03T06:39:55.381Z,1.40
2019-05-03T06:42:23.031Z,1.83
2019-05-03T06:44:50.225Z,1.47
2019-05-03T06:47:17.286Z,1.73
2019-05-03T06:49:48.330Z,1.60
2019-05-03T06:52:19.850Z,1.60
2019-05-03T06:54:44.929Z,1.57
2019-05-03T06:57:15.928Z,1.43
2019-05-03T06:59:48.334Z,1.13
2019-05-03T07:02:40.782Z,1.50
2019-05-03T07:05:15.305Z,1.30
2019-05-03T07:07:50.878Z,1.20
2019-05-03T07:10:27.028Z,1.23
2019-05-03T07:13:04.998Z,1.30
2019-05-03T07:15:32.243Z,1.20
2019-05-03T07:17:59.514Z,1.30
2019-05-03T07:20:26.712Z,2.33
2019-05-03T07:22:55.740Z,1.60
2019-05-03T07:25:25.331Z,1.07
2019-05-03T07:27:52.380Z,1.10
2019-05-03T07:30:19.651Z,1.20
2019-05-03T07:32:50.398Z,1.63
2019-05-03T07:35:17.469Z,1.10
2019-05-03T07:37:45.096Z,1.00
2019-05-03T07:40:14.859Z,1.20
2019-05-03T07:42:42.056Z,1.03
2019-05-03T07:45:09.522Z,1.23
2019-05-03T07:47:36.584Z,1.00
2019-05-03T07:50:05.087Z,1.17
2019-05-03T07:52:32.232Z,1.10
2019-05-03T07:54:59.300Z,1.30
2019-05-03T07:57:36.784Z,1.10
2019-05-03T08:00:05.049Z,1.13
2019-05-03T08:02:32.168Z,1.03
2019-05-03T08:04:59.230Z,1.00
2019-05-03T08:07:28.438Z,0.90
2019-05-03T08:09:55.737Z,1.20
2019-05-03T08:12:24.702Z,1.40
2019-05-03T08:14:51.944Z,1.03
2019-05-03T08:17:20.899Z,1.43
2019-05-03T08:19:49.726Z,1.27
2019-05-03T08:22:16.798Z,1.10
2019-05-03T08:24:44.805Z,1.17
2019-05-03T08:27:11.951Z,1.00
2019-05-03T08:29:39.022Z,1.20
2019-05-03T08:32:35.353Z,1.20
2019-05-03T08:35:24.448Z,1.27
2019-05-03T08:37:54.737Z,1.10
2019-05-03T08:40:24.667Z,1.00
2019-05-03T08:42:54.844Z,1.00
2019-05-03T08:45:25.566Z,0.90
2019-05-03T08:47:57.013Z,0.87
2019-05-03T08:50:25.685Z,1.17
2019-05-03T08:52:52.906Z,1.20
2019-05-03T08:55:19.984Z,0.90
2019-05-03T08:57:47.047Z,0.90
2019-05-03T09:00:16.261Z,1.00
2019-05-03T09:02:44.764Z,0.90
2019-05-03T09:05:12.602Z,0.80
2019-05-03T09:07:39.667Z,1.00
2019-05-03T09:10:16.856Z,0.93
2019-05-03T09:13:06.153Z,0.80
2019-05-03T09:15:34.988Z,0.70
2019-05-03T09:18:04.630Z,0.90
2019-05-03T09:20:32.435Z,1.00
2019-05-03T09:22:59.923Z,0.80
2019-05-03T09:25:27.035Z,1.00
2019-05-03T09:27:55.217Z,1.00
2019-05-03T09:30:22.459Z,1.00
2019-05-03T09:32:51.354Z,0.80
2019-05-03T09:35:29.563Z,0.90
2019-05-03T09:37:47.403Z,0.80
2019-05-03T09:40:15.228Z,0.80
2019-05-03T09:42:44.510Z,0.80
2019-05-03T09:45:12.541Z,1.00
2019-05-03T09:47:39.603Z,0.70
2019-05-03T09:50:07.231Z,0.90
2019-05-03T09:52:35.535Z,0.80
2019-05-03T09:55:05.395Z,0.60
2019-05-03T09:57:34.639Z,0.80
2019-05-03T10:00:01.661Z,1.07
2019-05-03T10:02:28.724Z,0.90
2019-05-03T10:04:55.816Z,0.70
2019-05-03T10:07:22.889Z,0.90
2019-05-03T10:09:49.961Z,1.00
2019-05-03T10:12:19.982Z,1.00
2019-05-03T10:14:47.052Z,0.80
2019-05-03T10:17:40.354Z,1.00
2019-05-03T10:20:09.851Z,0.90
2019-05-03T10:22:36.932Z,0.87
2019-05-03T10:25:05.233Z,0.60
2019-05-03T10:27:45.704Z,0.80
2019-05-03T10:30:24.156Z,0.80
2019-05-03T10:32:57.363Z,0.73
2019-05-03T10:35:24.713Z,0.97
2019-05-03T10:37:51.870Z,0.70
2019-05-03T10:40:25.232Z,1.20
2019-05-03T10:42:52.299Z,0.80
2019-05-03T10:45:19.375Z,1.10
2019-05-03T10:47:46.465Z,0.73
2019-05-03T10:50:15.590Z,0.77
2019-05-03T10:52:48.079Z,0.60
2019-05-03T10:55:15.968Z,0.63
2019-05-03T10:57:45.874Z,1.33
2019-05-03T11:00:41.726Z,0.50
2019-05-03T11:02:50.098Z,0.87
2019-05-03T11:05:17.171Z,0.87
2019-05-03T11:07:45.138Z,0.70
2019-05-03T11:10:14.578Z,0.63
2019-05-03T11:12:41.523Z,0.80
2019-05-03T11:15:09.300Z,0.90
2019-05-03T11:17:36.384Z,0.70
2019-05-03T11:20:05.276Z,0.80
2019-05-03T11:22:34.566Z,1.00
2019-05-03T11:25:01.394Z,0.70
2019-05-03T11:27:35.426Z,0.70
2019-05-03T11:30:04.946Z,0.77
2019-05-03T11:32:40.820Z,0.70
2019-05-03T11:35:29.058Z,0.93
2019-05-03T11:38:26.666Z,1.00
2019-05-03T11:40:55.806Z,0.77
2019-05-03T11:43:24.561Z,0.90
2019-05-03T11:45:51.684Z,0.70
2019-05-03T11:48:18.795Z,0.80
2019-05-03T11:50:45.873Z,0.80
2019-05-03T11:53:14.579Z,0.80
2019-05-03T11:55:41.739Z,0.80
2019-05-03T11:58:21.677Z,1.03
2019-05-03T12:01:12.997Z,0.60
2019-05-03T12:03:37.674Z,0.80
2019-05-03T12:06:05.035Z,1.10
2019-05-03T12:08:32.223Z,0.90
2019-05-03T12:11:01.615Z,0.93
2019-05-03T12:13:29.868Z,0.60
2019-05-03T12:15:57.436Z,0.67
2019-05-03T12:18:25.423Z,0.70
2019-05-03T12:20:56.105Z,0.80
2019-05-03T12:23:22.742Z,0.73
2019-05-03T12:25:51.533Z,0.80
2019-05-03T12:28:19.150Z,0.87
2019-05-03T12:30:46.223Z,0.80
2019-05-03T12:33:15.342Z,1.03
2019-05-03T12:35:42.317Z,0.73
2019-05-03T12:38:09.395Z,0.80
2019-05-03T12:40:36.518Z,0.70
2019-05-03T12:43:06.105Z,1.10
2019-05-03T12:45:35.000Z,0.80
2019-05-03T12:48:01.907Z,0.80
2019-05-03T12:50:28.979Z,0.90
2019-05-03T12:52:56.080Z,0.80
2019-05-03T12:55:24.788Z,0.80
2019-05-03T12:57:52.018Z,0.70
2019-05-03T13:00:48.750Z,0.80
2019-05-03T13:03:20.409Z,0.67
2019-05-03T13:05:47.490Z,0.50
2019-05-03T13:08:54.725Z,0.70
2019-05-03T13:11:21.573Z,0.80
2019-05-03T13:13:48.635Z,0.80
2019-05-03T13:16:18.416Z,0.63
2019-05-03T13:18:47.292Z,0.70
2019-05-03T13:21:15.519Z,0.90
2019-05-03T13:23:42.602Z,0.90
2019-05-03T13:26:10.779Z,0.83
2019-05-03T13:28:37.931Z,1.00
2019-05-03T13:31:05.948Z,0.90
2019-05-03T13:33:34.753Z,0.83
2019-05-03T13:36:02.191Z,0.70
2019-05-03T13:38:29.403Z,0.67
2019-05-03T13:40:57.132Z,0.60
2019-05-03T13:43:24.314Z,0.80
2019-05-03T13:45:51.438Z,0.90
2019-05-03T13:48:20.927Z,0.80
2019-05-03T13:50:47.518Z,0.80
2019-05-03T13:53:16.121Z,0.80
2019-05-03T13:55:44.540Z,0.60
2019-05-03T13:58:11.760Z,0.80
2019-05-03T14:00:38.832Z,0.80
2019-05-03T14:03:05.907Z,0.77
2019-05-03T14:05:35.168Z,0.83
2019-05-03T14:08:04.832Z,1.00
2019-05-03T14:10:31.566Z,0.87
2019-05-03T14:12:58.704Z,0.90
2019-05-03T14:15:25.777Z,0.90
2019-05-03T14:17:54.680Z,0.90
2019-05-03T14:20:40.143Z,0.73
2019-05-03T14:23:07.217Z,2.00
2019-05-03T14:25:35.112Z,0.80
2019-05-03T14:28:02.344Z,0.70
2019-05-03T14:30:29.625Z,0.57
2019-05-03T14:32:56.915Z,0.80
2019-05-03T14:35:25.096Z,0.50
2019-05-03T14:37:52.211Z,0.70
2019-05-03T14:40:19.327Z,0.67
2019-05-03T14:42:46.426Z,0.60
2019-05-03T14:45:15.098Z,0.60
2019-05-03T14:47:42.491Z,0.63
2019-05-03T14:50:09.658Z,0.70
2019-05-03T14:52:36.779Z,0.70
2019-05-03T14:55:14.586Z,0.70
2019-05-03T14:57:49.770Z,0.70
2019-05-03T15:00:29.311Z,0.70
2019-05-03T15:02:59.874Z,0.80
2019-05-03T15:05:26.950Z,1.07
2019-05-03T15:07:55.819Z,0.60
2019-05-03T15:10:22.999Z,0.80
2019-05-03T15:12:50.075Z,0.80
2019-05-03T15:15:19.072Z,0.90
2019-05-03T15:17:46.155Z,0.70
2019-05-03T15:20:14.779Z,0.93
2019-05-03T15:22:42.031Z,0.73
2019-05-03T15:25:09.526Z,0.80
2019-05-03T15:27:37.174Z,0.60
2019-05-03T15:30:06.357Z,0.90
2019-05-03T15:32:35.379Z,0.80
2019-05-03T15:35:04.676Z,0.93
2019-05-03T15:37:31.932Z,0.80
2019-05-03T15:39:59.449Z,0.80
2019-05-03T15:42:27.337Z,0.70
2019-05-03T15:45:15.165Z,0.87
2019-05-03T15:48:04.389Z,0.93
2019-05-03T15:50:31.910Z,0.63
2019-05-03T15:52:59.037Z,0.80
2019-05-03T15:55:26.385Z,0.83
2019-05-03T15:57:55.269Z,0.60
2019-05-03T16:00:24.464Z,0.80
2019-05-03T16:02:51.705Z,0.80
2019-05-03T16:05:19.001Z,0.80
2019-05-03T16:07:46.096Z,0.77
2019-05-03T16:10:15.311Z,0.63
2019-05-03T16:12:44.943Z,0.70
2019-05-03T16:15:12.199Z,0.80
2019-05-03T16:17:39.269Z,0.70
2019-05-03T16:20:07.658Z,0.60
2019-05-03T16:22:36.042Z,0.60
2019-05-03T16:25:05.164Z,0.70
2019-05-03T16:27:55.204Z,0.93
2019-05-03T16:30:29.959Z,0.97
2019-05-03T16:32:57.031Z,1.10
2019-05-03T16:35:25.611Z,0.57
2019-05-03T16:37:54.368Z,0.93
2019-05-03T16:40:21.606Z,1.10
2019-05-03T16:42:48.676Z,0.97
2019-05-03T16:45:16.998Z,0.90
2019-05-03T16:47:44.818Z,1.00
2019-05-03T16:50:12.097Z,1.00
2019-05-03T16:52:39.161Z,1.00
2019-05-03T16:55:06.234Z,1.00
2019-05-03T16:57:35.277Z,1.10
2019-05-03T17:00:02.492Z,1.17
2019-05-03T17:02:29.559Z,0.87
2019-05-03T17:05:04.757Z,1.00
2019-05-03T17:07:41.112Z,1.00
2019-05-03T17:10:31.182Z,1.10
2019-05-03T17:12:58.276Z,1.10
2019-05-03T17:15:25.483Z,1.20
2019-05-03T17:17:52.578Z,1.20
2019-05-03T17:20:19.641Z,1.17
2019-05-03T17:22:47.829Z,1.23
2019-05-03T17:25:15.106Z,1.20
2019-05-03T17:27:42.192Z,1.57
2019-05-03T17:30:10.379Z,1.10
2019-05-03T17:32:37.458Z,1.07
2019-05-03T17:35:05.328Z,1.47
2019-05-03T17:37:34.541Z,1.63
2019-05-03T17:40:34.884Z,1.10
2019-05-03T17:43:27.762Z,1.90
2019-05-03T17:45:55.928Z,3.27
2019-05-03T17:48:23.020Z,1.40
2019-05-03T17:50:50.194Z,1.47
2019-05-03T17:53:46.142Z,1.47
2019-05-03T17:56:38.729Z,1.30
2019-05-03T17:59:09.242Z,1.50
2019-05-03T18:02:04.143Z,1.47
2019-05-03T18:04:44.991Z,0.90
2019-05-03T18:07:24.319Z,0.80
2019-05-03T18:09:51.724Z,1.20
2019-05-03T18:12:18.940Z,1.43
2019-05-03T18:14:46.158Z,1.10
2019-05-03T18:17:14.812Z,1.20
2019-05-03T18:19:42.046Z,1.10
2019-05-03T18:22:09.121Z,1.17
2019-05-03T18:24:36.235Z,1.03
2019-05-03T18:27:03.535Z,1.30
2019-05-03T18:29:31.683Z,1.20
2019-05-03T18:31:58.826Z,0.97
2019-05-03T18:34:25.928Z,1.13
2019-05-03T18:36:54.819Z,0.83
2019-05-03T18:39:21.891Z,1.30
2019-05-03T18:41:48.964Z,1.27
2019-05-03T18:44:29.074Z,1.10
2019-05-03T18:47:02.031Z,1.10
2019-05-03T18:49:29.154Z,0.97
2019-05-03T18:51:57.377Z,1.13
2019-05-03T18:54:24.659Z,1.00
2019-05-03T18:56:51.925Z,1.30
2019-05-03T18:59:19.014Z,1.13
2019-05-03T19:01:46.077Z,1.37
2019-05-03T19:04:18.265Z,1.00
2019-05-03T19:06:45.370Z,0.90
2019-05-03T19:09:30.581Z,1.10
2019-05-03T19:12:23.463Z,1.37
2019-05-03T19:14:51.739Z,1.40
2019-05-03T19:17:43.763Z,1.40
2019-05-03T19:20:15.370Z,1.40
2019-05-03T19:22:42.397Z,1.70
2019-05-03T19:25:09.778Z,1.60
2019-05-03T19:27:36.895Z,1.30
2019-05-03T19:30:04.727Z,1.90
2019-05-03T19:32:31.830Z,1.70
2019-05-03T19:34:58.943Z,1.60
2019-05-03T19:37:26.129Z,1.60
2019-05-03T19:39:55.050Z,1.40
2019-05-03T19:42:26.935Z,1.47
2019-05-03T19:44:52.297Z,1.40
2019-05-03T19:47:19.465Z,1.67
2019-05-03T19:49:46.490Z,1.20
2019-05-03T19:52:16.155Z,1.50
2019-05-03T19:54:44.875Z,1.70
2019-05-03T19:57:15.209Z,1.30
2019-05-03T19:59:56.347Z,1.23
2019-05-03T20:02:30.230Z,0.90
2019-05-03T20:05:16.848Z,1.63
2019-05-03T20:08:02.529Z,1.17
2019-05-03T20:10:31.724Z,1.40
2019-05-03T20:12:58.818Z,1.50
2019-05-03T20:15:27.002Z,1.40
2019-05-03T20:17:59.753Z,1.30
2019-05-03T20:20:23.064Z,1.67
2019-05-03T20:22:50.136Z,1.60
2019-05-03T20:25:17.205Z,1.60
2019-05-03T20:27:44.618Z,1.33
2019-05-03T20:30:12.371Z,1.47
2019-05-03T20:32:39.452Z,1.30
2019-05-03T20:35:16.683Z,1.43
2019-05-03T20:37:35.739Z,1.50
2019-05-03T20:40:04.883Z,1.50
2019-05-03T20:42:52.030Z,1.30
2019-05-03T20:45:24.921Z,1.20
2019-05-03T20:47:55.102Z,1.37
2019-05-03T20:50:22.239Z,1.30
2019-05-03T20:52:49.334Z,1.53
2019-05-03T20:55:16.410Z,1.33
2019-05-03T20:57:44.393Z,1.30
2019-05-03T21:00:14.960Z,1.20
2019-05-03T21:02:51.582Z,1.47
2019-05-03T21:05:23.813Z,2.40
2019-05-03T21:07:40.324Z,1.90
2019-05-03T21:10:07.877Z,1.67
2019-05-03T21:12:34.954Z,1.60
2019-05-03T21:15:04.961Z,1.77
2019-05-03T21:17:55.548Z,1.70
2019-05-03T21:20:45.076Z,1.60
2019-05-03T21:23:14.751Z,1.50
2019-05-03T21:26:03.546Z,1.50
2019-05-03T21:28:16.159Z,1.30
2019-05-03T21:30:45.355Z,1.77
2019-05-03T21:33:12.226Z,1.60
2019-05-03T21:35:41.911Z,1.90
2019-05-03T21:38:08.279Z,2.00
2019-05-03T21:40:39.830Z,2.07
2019-05-03T21:43:06.895Z,1.57
2019-05-03T21:45:45.192Z,1.70
2019-05-03T21:48:16.534Z,1.70
2019-05-03T21:50:44.618Z,1.20
2019-05-03T21:53:11.926Z,1.80
2019-05-03T21:55:39.012Z,1.40
2019-05-03T21:58:06.082Z,1.50
2019-05-03T22:00:58.630Z,1.63
2019-05-03T22:03:26.011Z,1.60
2019-05-03T22:05:56.002Z,1.80
2019-05-03T22:08:22.104Z,1.80
2019-05-03T22:10:49.575Z,1.63
2019-05-03T22:13:17.353Z,1.80
2019-05-03T22:15:48.705Z,1.73
2019-05-03T22:18:26.308Z,1.37
2019-05-03T22:21:15.750Z,1.60
2019-05-03T22:24:01.179Z,1.67
2019-05-03T22:26:46.763Z,2.00
2019-05-03T22:29:17.132Z,1.90
2019-05-03T22:31:45.234Z,1.70
2019-05-03T22:34:15.068Z,1.30
2019-05-03T22:36:44.272Z,1.33
2019-05-03T22:39:11.505Z,1.83
2019-05-03T22:41:38.594Z,1.40
2019-05-03T22:44:05.756Z,1.47
2019-05-03T22:46:34.675Z,1.47
2019-05-03T22:49:01.756Z,1.37
2019-05-03T22:51:28.844Z,1.20
2019-05-03T22:53:55.904Z,1.40
2019-05-03T22:56:24.783Z,1.27
2019-05-03T22:58:51.946Z,1.60
2019-05-03T23:01:19.005Z,1.80
2019-05-03T23:03:46.082Z,1.57
2019-05-03T23:06:22.434Z,1.47
2019-05-03T23:08:43.438Z,1.50
2019-05-03T23:11:10.618Z,1.53
2019-05-03T23:13:37.694Z,1.83
2019-05-03T23:16:05.189Z,1.37
2019-05-03T23:18:32.326Z,1.87
2019-05-03T23:21:06.318Z,1.67
2019-05-03T23:23:49.280Z,1.60
2019-05-03T23:26:16.390Z,1.87
2019-05-03T23:28:44.602Z,1.90
2019-05-03T23:31:11.794Z,1.50
2019-05-03T23:33:38.863Z,1.90
2019-05-03T23:36:05.956Z,1.70
2019-05-03T23:38:33.061Z,1.40
2019-05-03T23:41:00.105Z,1.30
2019-05-03T23:43:27.164Z,1.70
2019-05-03T23:45:54.604Z,1.53
2019-05-03T23:48:21.746Z,1.90
2019-05-03T23:50:48.802Z,1.90
2019-05-03T23:53:15.868Z,1.83
2019-05-03T23:55:56.880Z,1.67
2019-05-03T23:58:24.645Z,2.10
